createdAt,value
2022-10-13T00:00:43.371Z,29.23
2022-10-13T00:03:10.788Z,25.85
2022-10-13T00:05:42.229Z,32.60
2022-10-13T00:08:09.775Z,31.48
2022-10-13T00:10:42.492Z,31.50
2022-10-13T00:13:12.138Z,25.90
2022-10-13T00:15:40.049Z,30.27
2022-10-13T00:18:07.550Z,31.77
2022-10-13T00:20:35.272Z,36.35
2022-10-13T00:23:02.529Z,29.40
2022-10-13T00:25:29.823Z,33.47
2022-10-13T00:27:57.113Z,27.02
2022-10-13T00:30:36.552Z,30.77
2022-10-13T00:33:03.893Z,31.13
2022-10-13T00:35:31.105Z,35.67
2022-10-13T00:37:58.476Z,36.15
2022-10-13T00:40:30.357Z,31.52
2022-10-13T00:42:57.647Z,31.20
2022-10-13T00:45:26.458Z,29.33
2022-10-13T00:47:58.230Z,33.63
2022-10-13T00:50:36.074Z,33.33
2022-10-13T00:53:05.935Z,30.00
2022-10-13T00:55:35.082Z,30.80
2022-10-13T00:58:05.546Z,27.17
2022-10-13T01:00:33.498Z,28.95
2022-10-13T01:03:01.703Z,30.48
2022-10-13T01:05:29.038Z,26.48
2022-10-13T01:07:56.219Z,31.10
2022-10-13T01:10:29.526Z,29.70
2022-10-13T01:13:04.123Z,32.80
2022-10-13T01:15:40.789Z,28.88
2022-10-13T01:18:10.599Z,29.42
2022-10-13T01:20:49.357Z,28.10
2022-10-13T01:23:31.799Z,32.53
2022-10-13T01:26:18.589Z,29.50
2022-10-13T01:29:02.466Z,30.90
2022-10-13T01:31:29.752Z,30.27
2022-10-13T01:34:17.711Z,31.43
2022-10-13T01:36:55.100Z,28.75
2022-10-13T01:39:52.978Z,29.75
2022-10-13T01:42:24.881Z,27.98
2022-10-13T01:44:53.573Z,27.73
2022-10-13T01:47:20.770Z,28.43
2022-10-13T01:49:50.907Z,26.20
2022-10-13T01:52:19.146Z,27.63
2022-10-13T01:54:51.247Z,25.90
2022-10-13T01:57:35.521Z,29.60
2022-10-13T02:00:12.971Z,29.10
2022-10-13T02:02:48.491Z,29.02
2022-10-13T02:05:37.939Z,26.10
2022-10-13T02:08:10.745Z,27.70
2022-10-13T02:10:45.036Z,29.20
2022-10-13T02:13:13.134Z,26.33
2022-10-13T02:15:41.936Z,29.40
2022-10-13T02:18:09.894Z,26.52
2022-10-13T02:20:37.117Z,28.00
2022-10-13T02:23:09.352Z,32.03
2022-10-13T02:25:36.798Z,26.30
2022-10-13T02:28:04.194Z,30.17
2022-10-13T02:30:35.689Z,28.52
2022-10-13T02:33:03.277Z,28.73
2022-10-13T02:35:31.161Z,29.40
2022-10-13T02:38:02.596Z,28.17
2022-10-13T02:40:30.069Z,25.92
2022-10-13T02:42:57.309Z,28.88
2022-10-13T02:45:24.629Z,27.90
2022-10-13T02:47:56.118Z,27.40
2022-10-13T02:50:23.378Z,25.67
2022-10-13T02:52:50.960Z,25.52
2022-10-13T02:55:18.297Z,26.23
2022-10-13T02:57:46.419Z,24.48
2022-10-13T03:00:14.436Z,25.63
2022-10-13T03:02:42.310Z,25.17
2022-10-13T03:05:09.828Z,26.58
2022-10-13T03:07:37.091Z,25.92
2022-10-13T03:10:05.206Z,24.20
2022-10-13T03:12:32.449Z,32.85
2022-10-13T03:14:59.731Z,26.90
2022-10-13T03:17:27.483Z,28.70
2022-10-13T03:19:54.782Z,29.25
2022-10-13T03:22:22.363Z,28.67
2022-10-13T03:24:52.571Z,32.30
2022-10-13T03:27:19.893Z,27.43
2022-10-13T03:29:47.106Z,30.40
2022-10-13T03:32:14.590Z,32.85
2022-10-13T03:34:41.784Z,27.88
2022-10-13T03:37:09.226Z,30.58
2022-10-13T03:39:42.227Z,26.27
2022-10-13T03:42:10.986Z,28.58
2022-10-13T03:44:39.739Z,25.40
2022-10-13T03:47:07.088Z,26.38
2022-10-13T03:49:34.545Z,28.40
2022-10-13T03:52:01.991Z,28.47
2022-10-13T03:54:29.244Z,25.88
2022-10-13T03:56:57.768Z,27.48
2022-10-13T03:59:24.999Z,28.63
2022-10-13T04:01:52.381Z,27.25
2022-10-13T04:04:19.639Z,26.53
2022-10-13T04:06:47.630Z,29.60
2022-10-13T04:09:14.843Z,37.17
2022-10-13T04:11:42.149Z,36.30
2022-10-13T04:14:09.394Z,34.08
2022-10-13T04:16:36.676Z,30.97
2022-10-13T04:19:05.466Z,34.78
2022-10-13T04:21:36.223Z,29.92
2022-10-13T04:24:03.849Z,30.08
2022-10-13T04:26:32.687Z,34.53
2022-10-13T04:29:07.604Z,34.63
2022-10-13T04:31:35.276Z,42.70
2022-10-13T04:34:02.562Z,32.05
2022-10-13T04:36:30.084Z,33.40
2022-10-13T04:38:57.432Z,37.33
2022-10-13T04:41:25.923Z,42.03
2022-10-13T04:43:53.541Z,38.90
2022-10-13T04:46:23.480Z,43.90
2022-10-13T04:48:51.791Z,45.45
2022-10-13T04:51:23.576Z,48.60
2022-10-13T04:53:55.866Z,44.73
2022-10-13T04:56:23.465Z,43.35
2022-10-13T04:58:50.993Z,40.42
2022-10-13T05:01:22.193Z,47.75
2022-10-13T05:03:57.690Z,52.67
2022-10-13T05:06:26.550Z,52.33
2022-10-13T05:08:56.384Z,45.20
2022-10-13T05:11:24.486Z,45.75
2022-10-13T05:13:52.330Z,47.17
2022-10-13T05:16:21.176Z,43.78
2022-10-13T05:18:49.372Z,47.87
2022-10-13T05:21:21.249Z,46.28
2022-10-13T05:23:49.201Z,43.78
2022-10-13T05:26:20.634Z,46.67
2022-10-13T05:28:50.131Z,42.42
2022-10-13T05:31:22.664Z,46.37
2022-10-13T05:33:54.205Z,41.72
2022-10-13T05:36:26.845Z,51.13
2022-10-13T05:38:55.713Z,47.95
2022-10-13T05:41:23.747Z,52.20
2022-10-13T05:44:02.361Z,51.53
2022-10-13T05:46:29.845Z,55.28
2022-10-13T05:48:58.055Z,63.97
2022-10-13T05:51:28.845Z,62.65
2022-10-13T05:54:22.085Z,62.67
2022-10-13T05:57:00.860Z,62.67
2022-10-13T05:59:30.734Z,71.35
2022-10-13T06:01:58.847Z,67.72
2022-10-13T06:04:31.082Z,64.25
2022-10-13T06:06:59.193Z,61.28
2022-10-13T06:09:29.278Z,52.20
2022-10-13T06:11:57.182Z,53.58
2022-10-13T06:14:24.660Z,54.85
2022-10-13T06:16:54.851Z,51.65
2022-10-13T06:19:22.861Z,62.22
2022-10-13T06:21:50.430Z,54.67
2022-10-13T06:24:18.724Z,47.05
2022-10-13T06:26:46.877Z,50.75
2022-10-13T06:29:14.470Z,49.60
2022-10-13T06:31:41.924Z,44.17
2022-10-13T06:34:10.519Z,39.73
2022-10-13T06:36:38.741Z,47.33
2022-10-13T06:39:05.987Z,41.03
2022-10-13T06:41:33.713Z,44.35
2022-10-13T06:44:04.213Z,42.95
2022-10-13T06:46:32.195Z,41.43
2022-10-13T06:48:59.814Z,38.45
2022-10-13T06:51:27.674Z,38.67
2022-10-13T06:53:58.261Z,38.67
2022-10-13T06:56:28.023Z,40.67
2022-10-13T06:58:59.346Z,35.83
2022-10-13T07:01:27.177Z,36.63
2022-10-13T07:03:55.628Z,37.10
2022-10-13T07:06:35.562Z,37.72
2022-10-13T07:09:08.459Z,34.90
2022-10-13T07:11:37.142Z,31.27
2022-10-13T07:14:05.261Z,34.50
2022-10-13T07:16:33.059Z,32.22
2022-10-13T07:19:03.159Z,29.40
2022-10-13T07:21:30.819Z,29.33
2022-10-13T07:23:58.472Z,24.87
2022-10-13T07:26:28.605Z,24.08
2022-10-13T07:28:56.405Z,24.15
2022-10-13T07:31:24.685Z,25.10
2022-10-13T07:33:53.025Z,26.70
2022-10-13T07:36:27.792Z,25.63
2022-10-13T07:38:55.974Z,24.80
2022-10-13T07:41:23.681Z,32.22
2022-10-13T07:43:58.216Z,23.15
2022-10-13T07:46:26.171Z,24.08
2022-10-13T07:48:54.394Z,24.43
2022-10-13T07:51:22.054Z,32.58
2022-10-13T07:53:49.505Z,26.30
2022-10-13T07:56:17.104Z,25.63
2022-10-13T07:58:46.130Z,24.00
2022-10-13T08:01:14.578Z,24.47
2022-10-13T08:03:45.563Z,24.65
2022-10-13T08:06:18.997Z,24.70
2022-10-13T08:08:46.379Z,26.88
2022-10-13T08:11:17.503Z,24.10
2022-10-13T08:13:50.366Z,26.77
2022-10-13T08:16:26.936Z,31.73
2022-10-13T08:18:55.023Z,23.75
2022-10-13T08:24:15.523Z,30.38
2022-10-13T08:26:43.327Z,27.67
2022-10-13T08:29:26.327Z,30.33
2022-10-13T08:31:54.397Z,28.42
2022-10-13T08:34:25.147Z,28.85
2022-10-13T08:36:54.638Z,28.83
2022-10-13T08:39:23.084Z,30.38
2022-10-13T08:41:50.676Z,29.40
2022-10-13T08:45:15.697Z,28.48
2022-10-13T08:47:48.465Z,26.90
2022-10-13T08:50:22.466Z,26.70
2022-10-13T08:52:54.545Z,32.75
2022-10-13T08:55:44.490Z,29.33
2022-10-13T08:58:29.473Z,31.05
2022-10-13T09:01:09.752Z,29.45
2022-10-13T09:04:08.733Z,28.65
2022-10-13T09:06:49.282Z,27.42
2022-10-13T09:09:18.142Z,29.97
2022-10-13T09:11:52.161Z,28.10
2022-10-13T09:14:31.530Z,27.35
2022-10-13T09:17:22.452Z,26.13
2022-10-13T09:20:21.156Z,25.10
2022-10-13T09:23:12.541Z,26.63
2022-10-13T09:25:42.063Z,21.85
2022-10-13T09:28:14.892Z,22.52
2022-10-13T09:30:44.415Z,23.08
2022-10-13T09:33:12.281Z,23.13
2022-10-13T09:35:40.473Z,23.87
2022-10-13T09:38:21.721Z,23.48
2022-10-13T09:41:04.853Z,19.83
2022-10-13T09:43:33.900Z,23.38
2022-10-13T09:46:02.319Z,19.98
2022-10-13T09:48:31.707Z,23.17
2022-10-13T09:51:00.099Z,16.50
2022-10-13T09:53:40.870Z,19.40
2022-10-13T09:56:19.909Z,17.55
2022-10-13T09:59:02.288Z,18.40
2022-10-13T10:01:34.222Z,19.37
2022-10-13T10:04:04.959Z,17.03
2022-10-13T10:06:33.389Z,20.17
2022-10-13T10:09:44.208Z,19.77
2022-10-13T10:12:30.365Z,18.10
2022-10-13T10:14:58.226Z,21.40
2022-10-13T10:17:28.696Z,18.20
2022-10-13T10:20:01.012Z,18.27
2022-10-13T10:22:42.875Z,18.52
2022-10-13T10:25:30.346Z,20.77
2022-10-13T10:28:09.922Z,20.55
2022-10-13T10:30:41.739Z,18.00
2022-10-13T10:33:14.785Z,24.27
2022-10-13T10:35:53.231Z,19.33
2022-10-13T10:39:00.295Z,19.52
2022-10-13T10:41:43.366Z,17.67
2022-10-13T10:44:13.359Z,20.00
2022-10-13T10:46:51.874Z,21.70
2022-10-13T10:49:33.076Z,15.65
2022-10-13T10:52:01.748Z,17.05
2022-10-13T10:54:35.426Z,21.80
2022-10-13T10:57:36.729Z,17.38
2022-10-13T11:00:21.329Z,20.73
2022-10-13T11:03:12.147Z,17.42
2022-10-13T11:06:25.149Z,21.55
2022-10-13T11:08:55.783Z,20.20
2022-10-13T11:11:25.101Z,20.77
2022-10-13T11:14:01.215Z,18.52
2022-10-13T11:16:39.562Z,18.03
2022-10-13T11:19:32.778Z,22.90
2022-10-13T11:22:00.447Z,20.38
2022-10-13T11:24:39.818Z,18.02
2022-10-13T11:27:16.468Z,20.17
2022-10-13T11:29:47.184Z,16.23
2022-10-13T11:32:35.845Z,23.90
2022-10-13T11:35:06.864Z,21.50
2022-10-13T11:38:08.767Z,21.15
2022-10-13T11:41:10.928Z,22.13
2022-10-13T11:43:46.807Z,20.07
2022-10-13T11:46:29.206Z,20.05
2022-10-13T11:49:03.046Z,17.55
2022-10-13T11:51:41.790Z,20.48
2022-10-13T11:54:13.712Z,18.52
2022-10-13T11:56:55.792Z,23.10
2022-10-13T11:59:34.155Z,23.90
2022-10-13T12:02:10.937Z,19.27
2022-10-13T12:04:42.787Z,22.75
2022-10-13T12:07:15.266Z,21.77
2022-10-13T12:09:53.381Z,20.13
2022-10-13T12:12:23.513Z,18.52
2022-10-13T12:14:55.262Z,21.27
2022-10-13T12:17:26.887Z,19.08
2022-10-13T12:19:56.240Z,18.55
2022-10-13T12:22:24.212Z,19.17
2022-10-13T12:24:58.842Z,18.95
2022-10-13T12:27:27.844Z,21.65
2022-10-13T12:29:55.824Z,18.73
2022-10-13T12:32:28.903Z,19.35
2022-10-13T12:34:56.928Z,19.87
2022-10-13T12:37:33.654Z,19.13
2022-10-13T12:40:01.414Z,20.75
2022-10-13T12:42:30.761Z,18.73
2022-10-13T12:44:58.736Z,18.48
2022-10-13T12:47:58.591Z,18.40
2022-10-13T12:50:27.639Z,20.40
2022-10-13T12:52:54.880Z,20.27
2022-10-13T12:55:22.751Z,16.65
2022-10-13T12:57:50.586Z,16.02
2022-10-13T13:00:21.357Z,17.05
2022-10-13T13:02:59.609Z,16.33
2022-10-13T13:05:33.771Z,18.38
2022-10-13T13:08:05.148Z,14.75
2022-10-13T13:10:32.623Z,15.23
2022-10-13T13:13:13.904Z,16.45
2022-10-13T13:15:41.896Z,18.53
2022-10-13T13:18:41.719Z,15.40
2022-10-13T13:21:11.299Z,17.02
2022-10-13T13:23:42.841Z,17.00
2022-10-13T13:26:15.672Z,16.35
2022-10-13T13:28:48.018Z,16.73
2022-10-13T13:31:17.056Z,15.63
2022-10-13T13:33:44.666Z,16.65
2022-10-13T13:36:19.171Z,16.48
2022-10-13T13:38:48.186Z,21.90
2022-10-13T13:41:15.771Z,13.60
2022-10-13T13:43:43.369Z,18.45
2022-10-13T13:46:17.082Z,16.13
2022-10-13T13:48:44.555Z,15.63
2022-10-13T13:51:11.842Z,15.45
2022-10-13T13:53:39.552Z,15.27
2022-10-13T13:56:15.217Z,14.07
2022-10-13T13:58:43.264Z,18.60
2022-10-13T14:01:11.163Z,18.55
2022-10-13T14:03:38.970Z,15.98
2022-10-13T14:06:08.410Z,17.77
2022-10-13T14:08:42.427Z,15.32
2022-10-13T14:11:10.566Z,14.70
2022-10-13T14:13:37.813Z,15.45
2022-10-13T14:16:05.461Z,15.23
2022-10-13T14:18:32.757Z,16.03
2022-10-13T14:21:00.093Z,14.65
2022-10-13T14:23:27.565Z,15.45
2022-10-13T14:25:54.907Z,14.90
2022-10-13T14:28:22.969Z,18.25
2022-10-13T14:30:50.429Z,16.40
2022-10-13T14:33:19.830Z,18.63
2022-10-13T14:35:47.304Z,18.75
2022-10-13T14:38:16.943Z,18.50
2022-10-13T14:40:44.873Z,18.10
2022-10-13T14:43:12.282Z,16.07
2022-10-13T14:45:39.884Z,21.17
2022-10-13T14:48:11.895Z,16.50
2022-10-13T14:50:39.218Z,19.83
2022-10-13T14:53:06.595Z,17.35
2022-10-13T14:55:33.977Z,16.60
2022-10-13T14:58:01.372Z,18.70
2022-10-13T15:00:28.948Z,15.13
2022-10-13T15:02:56.204Z,16.15
2022-10-13T15:05:26.114Z,16.23
2022-10-13T15:07:53.569Z,16.13
2022-10-13T15:10:20.794Z,17.40
2022-10-13T15:12:48.194Z,16.73
2022-10-13T15:15:15.473Z,17.40
2022-10-13T15:17:42.833Z,17.80
2022-10-13T15:20:10.616Z,17.00
2022-10-13T15:22:38.387Z,19.85
2022-10-13T15:25:10.556Z,18.25
2022-10-13T15:27:42.007Z,18.88
2022-10-13T15:30:10.060Z,17.00
2022-10-13T15:32:37.568Z,19.97
2022-10-13T15:35:06.478Z,16.73
2022-10-13T15:37:34.416Z,18.95
2022-10-13T15:40:01.821Z,17.60
2022-10-13T15:42:29.207Z,18.30
2022-10-13T15:45:09.324Z,22.30
2022-10-13T15:47:37.224Z,16.88
2022-10-13T15:50:04.926Z,18.80
2022-10-13T15:52:35.084Z,19.58
2022-10-13T15:55:02.560Z,19.48
2022-10-13T15:57:31.097Z,18.53
2022-10-13T15:59:58.478Z,17.20
2022-10-13T16:02:25.862Z,18.65
2022-10-13T16:04:53.431Z,17.40
2022-10-13T16:07:20.751Z,22.20
2022-10-13T16:09:48.233Z,22.13
2022-10-13T16:12:15.597Z,19.77
2022-10-13T16:14:43.289Z,23.98
2022-10-13T16:17:11.828Z,28.85
2022-10-13T16:19:39.828Z,27.77
2022-10-13T16:22:08.201Z,36.37
2022-10-13T16:24:37.622Z,28.65
2022-10-13T16:27:06.683Z,26.15
2022-10-13T16:29:34.424Z,23.50
2022-10-13T16:32:02.136Z,24.55
2022-10-13T16:34:29.552Z,23.87
2022-10-13T16:36:56.875Z,37.55
2022-10-13T16:39:24.936Z,34.53
2022-10-13T16:41:52.344Z,32.78
2022-10-13T16:44:23.029Z,25.30
2022-10-13T16:46:52.447Z,29.17
2022-10-13T16:49:19.782Z,23.52
2022-10-13T16:51:47.095Z,31.90
2022-10-13T16:54:14.418Z,27.50
2022-10-13T16:56:41.946Z,28.08
2022-10-13T16:59:10.161Z,25.97
2022-10-13T17:01:37.826Z,25.95
2022-10-13T17:04:05.255Z,26.38
2022-10-13T17:06:32.730Z,28.42
2022-10-13T17:09:00.546Z,31.20
2022-10-13T17:11:30.060Z,28.30
2022-10-13T17:13:57.987Z,32.95
2022-10-13T17:16:25.473Z,28.70
2022-10-13T17:18:53.337Z,31.17
2022-10-13T17:21:22.288Z,26.65
2022-10-13T17:23:49.770Z,29.57
2022-10-13T17:26:17.816Z,30.08
2022-10-13T17:28:45.339Z,27.48
2022-10-13T17:31:14.822Z,25.55
2022-10-13T17:33:42.353Z,32.38
2022-10-13T17:36:17.698Z,27.80
2022-10-13T17:38:45.253Z,31.75
2022-10-13T17:41:12.705Z,29.10
2022-10-13T17:43:49.864Z,32.55
2022-10-13T17:46:35.582Z,30.10
2022-10-13T17:49:03.941Z,37.43
2022-10-13T17:51:31.210Z,37.97
2022-10-13T17:53:59.000Z,34.33
2022-10-13T17:56:26.473Z,38.08
2022-10-13T17:58:54.080Z,39.28
2022-10-13T18:01:32.428Z,39.33
2022-10-13T18:04:08.856Z,36.60
2022-10-13T18:06:40.084Z,29.85
2022-10-13T18:09:08.938Z,35.35
2022-10-13T18:11:36.342Z,35.72
2022-10-13T18:14:03.874Z,34.37
2022-10-13T18:16:31.189Z,38.67
2022-10-13T18:18:58.626Z,42.28
2022-10-13T18:21:29.394Z,36.20
2022-10-13T18:23:58.026Z,36.72
2022-10-13T18:26:25.686Z,35.80
2022-10-13T18:28:53.167Z,35.55
2022-10-13T18:31:23.321Z,38.50
2022-10-13T18:33:58.710Z,41.13
2022-10-13T18:36:31.014Z,43.60
2022-10-13T18:39:05.479Z,33.57
2022-10-13T18:41:32.872Z,38.40
2022-10-13T18:44:00.505Z,40.88
2022-10-13T18:46:27.927Z,38.33
2022-10-13T18:48:55.371Z,35.13
2022-10-13T18:51:22.664Z,39.77
2022-10-13T18:53:52.884Z,42.67
2022-10-13T18:56:26.256Z,42.15
2022-10-13T18:58:59.290Z,41.72
2022-10-13T19:01:28.723Z,44.53
2022-10-13T19:03:56.067Z,40.70
2022-10-13T19:06:27.720Z,40.20
2022-10-13T19:09:00.851Z,38.70
2022-10-13T19:11:28.488Z,41.92
2022-10-13T19:13:55.777Z,33.58
2022-10-13T19:16:23.867Z,38.17
2022-10-13T19:18:51.197Z,41.50
2022-10-13T19:21:19.127Z,37.92
2022-10-13T19:23:46.574Z,37.13
2022-10-13T19:26:21.160Z,35.58
2022-10-13T19:28:48.481Z,34.90
2022-10-13T19:31:20.664Z,34.67
2022-10-13T19:33:50.420Z,39.63
2022-10-13T19:36:27.921Z,39.58
2022-10-13T19:38:57.343Z,38.70
2022-10-13T19:41:24.924Z,39.73
2022-10-13T19:43:52.188Z,37.65
2022-10-13T19:46:21.699Z,37.20
2022-10-13T19:48:49.056Z,42.63
2022-10-13T19:51:16.326Z,43.15
2022-10-13T19:53:43.757Z,39.10
2022-10-13T19:56:23.310Z,43.70
2022-10-13T19:58:51.316Z,45.33
2022-10-13T20:01:20.019Z,42.10
2022-10-13T20:03:47.506Z,46.00
2022-10-13T20:06:14.886Z,46.70
2022-10-13T20:08:42.451Z,41.00
2022-10-13T20:11:10.610Z,42.67
2022-10-13T20:13:38.037Z,48.38
2022-10-13T20:16:10.111Z,42.67
2022-10-13T20:18:37.767Z,40.23
2022-10-13T20:21:05.731Z,48.25
2022-10-13T20:23:33.184Z,47.45
2022-10-13T20:26:11.212Z,54.30
2022-10-13T20:28:43.179Z,59.05
2022-10-13T20:31:12.928Z,53.50
2022-10-13T20:33:40.394Z,50.92
2022-10-13T20:36:12.399Z,56.88
2022-10-13T20:38:39.854Z,52.83
2022-10-13T20:41:08.839Z,44.35
2022-10-13T20:43:37.058Z,56.03
2022-10-13T20:46:06.214Z,51.80
2022-10-13T20:48:51.475Z,53.63
2022-10-13T20:51:22.809Z,44.67
2022-10-13T20:53:50.034Z,43.40
2022-10-13T20:56:22.113Z,45.17
2022-10-13T20:58:49.674Z,49.83
2022-10-13T21:01:17.676Z,49.72
2022-10-13T21:03:45.203Z,46.15
2022-10-13T21:06:13.529Z,42.00
2022-10-13T21:08:40.964Z,38.23
2022-10-13T21:11:10.119Z,41.13
2022-10-13T21:13:38.399Z,34.58
2022-10-13T21:16:08.432Z,38.17
2022-10-13T21:18:35.846Z,39.75
2022-10-13T21:21:07.966Z,38.13
2022-10-13T21:23:35.495Z,32.28
2022-10-13T21:26:03.868Z,36.92
2022-10-13T21:28:31.532Z,36.92
2022-10-13T21:31:11.545Z,36.78
2022-10-13T21:33:39.185Z,38.57
2022-10-13T21:36:13.760Z,37.42
2022-10-13T21:38:41.662Z,34.85
2022-10-13T21:41:10.254Z,32.40
2022-10-13T21:43:37.637Z,33.70
2022-10-13T21:46:18.179Z,39.10
2022-10-13T21:48:45.981Z,32.78
2022-10-13T21:51:21.389Z,34.67
2022-10-13T21:53:52.831Z,35.67
2022-10-13T21:56:20.357Z,33.13
2022-10-13T21:58:49.062Z,31.37
2022-10-13T22:01:17.116Z,42.88
2022-10-13T22:03:44.472Z,37.08
2022-10-13T22:06:17.637Z,41.97
2022-10-13T22:08:47.012Z,38.05
2022-10-13T22:11:24.680Z,38.20
2022-10-13T22:13:52.111Z,39.63
2022-10-13T22:16:23.936Z,38.53
2022-10-13T22:18:52.307Z,41.10
2022-10-13T22:21:25.052Z,38.25
2022-10-13T22:23:55.185Z,37.70
2022-10-13T22:26:22.496Z,36.92
2022-10-13T22:28:51.765Z,35.58
2022-10-13T22:31:19.318Z,37.03
2022-10-13T22:33:46.545Z,41.25
2022-10-13T22:36:18.255Z,35.17
2022-10-13T22:38:46.008Z,36.55
2022-10-13T22:41:14.707Z,37.85
2022-10-13T22:43:44.231Z,40.83
2022-10-13T22:46:15.607Z,45.22
2022-10-13T22:48:43.172Z,40.60
2022-10-13T22:51:14.191Z,38.78
2022-10-13T22:53:41.705Z,40.60
2022-10-13T22:56:09.827Z,37.63
2022-10-13T22:58:37.375Z,36.53
2022-10-13T23:01:14.849Z,39.20
2022-10-13T23:03:42.314Z,37.88
2022-10-13T23:06:13.162Z,37.85
2022-10-13T23:08:40.951Z,37.33
2022-10-13T23:11:08.229Z,36.33
2022-10-13T23:13:35.738Z,40.67
2022-10-13T23:16:03.606Z,37.97
2022-10-13T23:18:35.073Z,34.67
2022-10-13T23:21:10.439Z,38.08
2022-10-13T23:23:37.885Z,43.90
2022-10-13T23:26:06.279Z,35.47
2022-10-13T23:28:33.870Z,34.60
2022-10-13T23:31:11.558Z,31.17
2022-10-13T23:33:38.876Z,30.45
2022-10-13T23:36:06.845Z,34.10
2022-10-13T23:38:34.275Z,32.87
2022-10-13T23:41:12.111Z,34.00
2022-10-13T23:43:40.878Z,31.17
2022-10-13T23:46:08.160Z,31.30
2022-10-13T23:48:35.519Z,33.60
2022-10-13T23:51:07.784Z,34.90
2022-10-13T23:53:36.372Z,30.65
2022-10-13T23:56:04.688Z,27.08
2022-10-13T23:58:32.284Z,28.75
